createdAt,value
2022-10-09T00:02:50.331Z,100560.72
2022-10-09T00:05:53.766Z,100555.22
2022-10-09T00:08:59.767Z,100555.78
2022-10-09T00:19:25.838Z,100559.34
2022-10-09T00:22:29.000Z,100558.00
2022-10-09T00:25:32.296Z,100556.81
2022-10-09T00:28:38.497Z,100560.28
2022-10-09T00:31:41.577Z,100552.03
2022-10-09T00:34:44.539Z,100546.03
2022-10-09T00:37:48.699Z,100547.28
2022-10-09T00:40:52.204Z,100537.03
2022-10-09T00:43:57.901Z,100537.97
2022-10-09T00:47:00.826Z,100537.97
2022-10-09T00:50:41.487Z,100533.28
2022-10-09T00:53:44.496Z,100531.38
2022-10-09T00:56:48.815Z,100528.16
2022-10-09T00:59:51.905Z,100525.59
2022-10-09T01:02:54.897Z,100518.97
2022-10-09T01:06:27.021Z,100526.03
2022-10-09T01:09:37.299Z,100516.66
2022-10-09T01:12:40.117Z,100520.03
2022-10-09T01:15:59.400Z,100524.22
2022-10-09T01:19:16.804Z,100517.12
2022-10-09T01:22:19.295Z,100515.69
2022-10-09T01:25:51.430Z,100515.22
2022-10-09T01:28:59.975Z,100514.38
2022-10-09T01:32:04.907Z,100516.91
2022-10-09T01:35:08.997Z,100517.50
2022-10-09T01:38:14.896Z,100518.69
2022-10-09T01:41:17.991Z,100513.75
2022-10-09T01:44:24.175Z,100516.66
2022-10-09T01:47:27.002Z,100515.94
2022-10-09T01:50:34.851Z,100525.06
2022-10-09T01:53:38.905Z,100526.94
2022-10-09T01:56:45.658Z,100520.38
2022-10-09T01:59:50.700Z,100520.03
2022-10-09T02:02:55.128Z,100516.19
2022-10-09T02:06:01.319Z,100528.34
2022-10-09T02:09:07.609Z,100528.09
2022-10-09T02:12:12.990Z,100534.81
2022-10-09T02:15:16.267Z,100533.66
2022-10-09T02:18:51.924Z,100538.37
2022-10-09T02:22:06.754Z,100542.94
2022-10-09T02:25:09.789Z,100535.47
2022-10-09T02:28:12.402Z,100535.97
2022-10-09T02:31:22.819Z,100537.16
2022-10-09T02:34:25.408Z,100544.03
2022-10-09T02:37:28.244Z,100545.94
2022-10-09T02:40:31.081Z,100549.66
2022-10-09T02:43:33.978Z,100553.31
2022-10-09T02:46:38.600Z,100551.84
2022-10-09T02:49:41.723Z,100559.06
2022-10-09T02:52:44.181Z,100557.41
2022-10-09T02:55:46.952Z,100556.78
2022-10-09T02:58:49.669Z,100565.19
2022-10-09T03:01:52.879Z,100564.38
2022-10-09T03:04:55.582Z,100561.22
2022-10-09T03:07:58.739Z,100562.91
2022-10-09T03:11:01.197Z,100568.69
2022-10-09T03:14:03.955Z,100570.25
2022-10-09T03:17:06.787Z,100578.47
2022-10-09T03:20:12.433Z,100574.97
2022-10-09T03:23:14.903Z,100570.75
2022-10-09T03:26:23.661Z,100570.62
2022-10-09T03:29:30.713Z,100566.53
2022-10-09T03:32:34.819Z,100571.59
2022-10-09T03:35:37.410Z,100580.88
2022-10-09T03:38:40.499Z,100571.63
2022-10-09T03:41:42.899Z,100574.25
2022-10-09T03:44:45.726Z,100586.41
2022-10-09T03:47:48.286Z,100590.00
2022-10-09T03:50:51.442Z,100586.25
2022-10-09T03:53:56.166Z,100584.53
2022-10-09T03:56:59.219Z,100584.88
2022-10-09T04:00:01.866Z,100586.81
2022-10-09T04:03:10.286Z,100590.25
2022-10-09T04:06:13.364Z,100595.84
2022-10-09T04:09:16.224Z,100600.31
2022-10-09T04:12:22.384Z,100592.09
2022-10-09T04:15:25.005Z,100589.00
2022-10-09T04:18:28.039Z,100605.28
2022-10-09T04:21:30.702Z,100599.50
2022-10-09T04:24:33.576Z,100600.75
2022-10-09T04:27:37.257Z,100596.25
2022-10-09T04:30:42.133Z,100587.19
2022-10-09T04:33:45.121Z,100594.56
2022-10-09T04:36:48.074Z,100607.66
2022-10-09T04:39:50.669Z,100602.97
2022-10-09T04:42:53.483Z,100610.91
2022-10-09T04:45:57.178Z,100618.38
2022-10-09T04:49:00.140Z,100613.94
2022-10-09T04:52:03.334Z,100616.37
2022-10-09T04:55:07.139Z,100617.38
2022-10-09T04:58:10.771Z,100621.00
2022-10-09T05:01:20.792Z,100630.44
2022-10-09T05:04:24.022Z,100636.66
2022-10-09T05:07:27.392Z,100634.63
2022-10-09T05:10:32.028Z,100639.06
2022-10-09T05:13:37.587Z,100651.84
2022-10-09T05:17:01.000Z,100657.59
2022-10-09T05:20:03.148Z,100664.41
2022-10-09T05:23:05.628Z,100647.88
2022-10-09T05:26:12.026Z,100639.50
2022-10-09T05:29:14.546Z,100640.13
2022-10-09T05:32:17.454Z,100642.62
2022-10-09T05:35:20.667Z,100655.91
2022-10-09T05:38:24.955Z,100651.66
2022-10-09T05:41:29.808Z,100643.28
2022-10-09T05:44:33.165Z,100664.00
2022-10-09T05:47:36.488Z,100667.41
2022-10-09T05:50:39.705Z,100659.16
2022-10-09T05:53:44.571Z,100671.09
2022-10-09T05:56:47.947Z,100679.94
2022-10-09T05:59:51.012Z,100676.47
2022-10-09T06:02:55.031Z,100675.50
2022-10-09T06:06:06.646Z,100680.87
2022-10-09T06:09:20.260Z,100688.50
2022-10-09T06:12:30.382Z,100688.16
2022-10-09T06:15:33.406Z,100699.03
2022-10-09T06:18:36.294Z,100697.47
2022-10-09T06:21:39.283Z,100699.84
2022-10-09T06:24:42.080Z,100699.81
2022-10-09T06:27:44.685Z,100711.22
2022-10-09T06:30:48.706Z,100715.19
2022-10-09T06:33:53.070Z,100721.69
2022-10-09T06:36:55.993Z,100717.72
2022-10-09T06:39:59.495Z,100722.28
2022-10-09T06:43:04.035Z,100731.22
2022-10-09T06:46:13.242Z,100731.66
2022-10-09T06:52:53.600Z,100744.03
2022-10-09T06:55:58.881Z,100733.50
2022-10-09T06:59:06.771Z,100745.69
2022-10-09T07:02:09.854Z,100747.44
2022-10-09T07:05:12.614Z,100754.47
2022-10-09T07:08:18.576Z,100755.34
2022-10-09T07:11:31.163Z,100759.28
2022-10-09T07:14:39.975Z,100765.59
2022-10-09T07:17:45.339Z,100767.00
2022-10-09T07:20:48.244Z,100772.41
2022-10-09T07:23:51.224Z,100773.91
2022-10-09T07:26:56.948Z,100771.72
2022-10-09T07:30:01.203Z,100776.47
2022-10-09T07:33:04.229Z,100782.75
2022-10-09T07:36:09.841Z,100784.62
2022-10-09T07:39:13.492Z,100790.22
2022-10-09T07:42:16.039Z,100789.53
2022-10-09T07:45:18.982Z,100789.72
2022-10-09T07:48:21.467Z,100792.28
2022-10-09T07:51:27.042Z,100787.38
2022-10-09T07:54:29.627Z,100793.16
2022-10-09T07:57:32.651Z,100796.03
2022-10-09T08:00:35.518Z,100793.44
2022-10-09T08:03:38.562Z,100797.47
2022-10-09T08:06:44.863Z,100793.56
2022-10-09T08:09:52.506Z,100786.31
2022-10-09T08:12:55.143Z,100792.59
2022-10-09T08:16:00.213Z,100795.69
2022-10-09T08:19:03.206Z,100795.91
2022-10-09T08:22:06.349Z,100804.66
2022-10-09T08:25:14.318Z,100802.56
2022-10-09T08:28:17.450Z,100801.31
2022-10-09T08:31:20.600Z,100806.66
2022-10-09T08:34:23.785Z,100793.88
2022-10-09T08:37:26.359Z,100811.66
2022-10-09T08:40:47.875Z,100809.44
2022-10-09T08:44:01.941Z,100813.84
2022-10-09T08:47:57.166Z,100820.91
2022-10-09T08:54:50.098Z,100835.00
2022-10-09T09:06:14.835Z,100834.72
2022-10-09T09:09:29.424Z,100839.03
2022-10-09T09:12:58.180Z,100837.25
2022-10-09T09:16:25.674Z,100837.88
2022-10-09T09:20:10.852Z,100840.50
2022-10-09T09:27:02.962Z,100846.47
2022-10-09T09:30:12.595Z,100838.62
2022-10-09T09:33:44.284Z,100856.47
2022-10-09T09:36:53.044Z,100850.97
2022-10-09T09:43:21.587Z,100860.34
2022-10-09T09:46:29.597Z,100867.00
2022-10-09T09:49:32.474Z,100866.59
2022-10-09T09:52:43.760Z,100863.03
2022-10-09T09:55:54.322Z,100858.25
2022-10-09T09:59:00.277Z,100858.53
2022-10-09T10:02:12.432Z,100866.22
2022-10-09T10:05:23.087Z,100856.38
2022-10-09T10:08:31.745Z,100859.25
2022-10-09T10:11:35.831Z,100851.94
2022-10-09T10:14:49.381Z,100858.97
2022-10-09T10:18:07.945Z,100854.16
2022-10-09T10:21:20.862Z,100872.50
2022-10-09T10:24:32.721Z,100857.66
2022-10-09T10:27:39.808Z,100867.91
2022-10-09T10:30:43.981Z,100865.19
2022-10-09T10:33:54.326Z,100864.75
2022-10-09T10:37:07.343Z,100865.69
2022-10-09T10:40:21.437Z,100869.53
2022-10-09T10:43:33.469Z,100865.19
2022-10-09T10:47:03.883Z,100870.56
2022-10-09T10:50:14.013Z,100865.56
2022-10-09T10:53:39.832Z,100867.75
2022-10-09T10:56:48.954Z,100864.31
2022-10-09T11:00:09.849Z,100859.91
2022-10-09T11:03:40.096Z,100859.19
2022-10-09T11:07:16.133Z,100851.66
2022-10-09T11:10:50.193Z,100861.06
2022-10-09T11:13:58.904Z,100850.13
2022-10-09T11:17:14.459Z,100852.59
2022-10-09T11:20:38.975Z,100845.28
2022-10-09T11:24:12.825Z,100843.16
2022-10-09T11:27:43.497Z,100859.28
2022-10-09T11:31:09.197Z,100850.59
2022-10-09T11:34:40.089Z,100843.41
2022-10-09T11:37:48.349Z,100830.69
2022-10-09T11:40:51.866Z,100838.28
2022-10-09T11:44:16.772Z,100834.88
2022-10-09T11:47:31.254Z,100847.75
2022-10-09T11:50:41.612Z,100834.31
2022-10-09T11:53:46.957Z,100832.47
2022-10-09T11:57:06.194Z,100819.69
2022-10-09T12:00:11.181Z,100822.69
2022-10-09T12:03:43.768Z,100825.84
2022-10-09T12:07:09.581Z,100824.16
2022-10-09T12:10:40.344Z,100823.00
2022-10-09T12:13:45.631Z,100821.00
2022-10-09T12:16:48.674Z,100823.81
2022-10-09T12:20:07.827Z,100816.28
2022-10-09T12:23:26.738Z,100813.63
2022-10-09T12:26:30.767Z,100818.84
2022-10-09T12:29:45.068Z,100823.06
2022-10-09T12:32:55.482Z,100822.56
2022-10-09T12:36:07.210Z,100820.19
2022-10-09T12:39:21.543Z,100821.75
2022-10-09T12:42:25.224Z,100818.47
2022-10-09T12:45:30.997Z,100817.78
2022-10-09T12:48:39.471Z,100811.09
2022-10-09T12:51:42.038Z,100804.66
2022-10-09T12:54:45.228Z,100813.53
2022-10-09T12:57:47.892Z,100804.31
2022-10-09T13:00:55.473Z,100802.47
2022-10-09T13:03:59.550Z,100799.44
2022-10-09T13:07:07.328Z,100795.22
2022-10-09T13:10:22.412Z,100796.06
2022-10-09T13:13:27.697Z,100785.69
2022-10-09T13:17:00.068Z,100786.34
2022-10-09T13:20:25.068Z,100791.41
2022-10-09T13:23:36.585Z,100783.59
2022-10-09T13:26:45.194Z,100784.28
2022-10-09T13:29:48.615Z,100780.06
2022-10-09T13:32:51.602Z,100780.06
2022-10-09T13:35:54.188Z,100771.28
2022-10-09T13:39:08.957Z,100775.84
2022-10-09T13:42:15.484Z,100772.28
2022-10-09T13:45:18.504Z,100778.50
2022-10-09T13:48:21.021Z,100777.34
2022-10-09T13:51:24.184Z,100765.97
2022-10-09T13:54:29.131Z,100766.03
2022-10-09T13:57:32.277Z,100766.53
2022-10-09T14:00:38.494Z,100763.88
2022-10-09T14:03:42.845Z,100760.31
2022-10-09T14:06:45.871Z,100766.34
2022-10-09T14:09:48.950Z,100761.66
2022-10-09T14:12:52.145Z,100759.50
2022-10-09T14:15:55.904Z,100769.59
2022-10-09T14:19:07.277Z,100768.22
2022-10-09T14:37:29.801Z,100766.06
2022-10-09T14:56:04.916Z,100767.59
2022-10-09T14:59:11.061Z,100766.91
2022-10-09T15:02:16.182Z,100769.75
2022-10-09T15:05:19.862Z,100765.38
2022-10-09T15:08:27.585Z,100763.00
2022-10-09T15:11:31.694Z,100768.97
2022-10-09T15:14:34.544Z,100770.72
2022-10-09T15:17:40.308Z,100775.03
2022-10-09T15:20:46.794Z,100776.75
2022-10-09T15:23:50.843Z,100778.88
2022-10-09T15:26:53.637Z,100781.97
2022-10-09T15:29:56.726Z,100792.69
2022-10-09T15:33:03.307Z,100786.59
2022-10-09T15:36:07.038Z,100790.84
2022-10-09T15:39:10.146Z,100792.31
2022-10-09T15:42:39.316Z,100795.84
2022-10-09T15:45:42.935Z,100798.22
2022-10-09T15:48:47.453Z,100803.34
2022-10-09T15:51:51.351Z,100801.09
2022-10-09T15:54:56.066Z,100795.25
2022-10-09T15:57:58.630Z,100802.59
2022-10-09T16:01:10.363Z,100799.28
2022-10-09T16:04:14.086Z,100799.19
2022-10-09T16:07:16.593Z,100806.94
2022-10-09T16:10:19.853Z,100803.72
2022-10-09T16:13:24.629Z,100806.44
2022-10-09T16:16:28.541Z,100808.69
2022-10-09T16:19:31.219Z,100818.78
2022-10-09T16:22:34.300Z,100818.97
2022-10-09T16:25:43.154Z,100813.31
2022-10-09T16:28:47.671Z,100816.56
2022-10-09T16:31:50.532Z,100823.41
2022-10-09T16:34:53.361Z,100828.62
2022-10-09T16:37:56.075Z,100832.12
2022-10-09T16:41:02.827Z,100832.69
2022-10-09T16:44:12.742Z,100834.06
2022-10-09T16:47:15.515Z,100841.75
2022-10-09T16:50:45.507Z,100845.25
2022-10-09T16:53:53.865Z,100844.81
2022-10-09T16:56:56.789Z,100846.06
2022-10-09T17:00:00.059Z,100852.94
2022-10-09T17:03:02.985Z,100858.44
2022-10-09T17:06:11.989Z,100859.56
2022-10-09T17:09:15.080Z,100865.44
2022-10-09T17:12:18.381Z,100868.09
2022-10-09T17:15:21.647Z,100861.91
2022-10-09T17:18:25.086Z,100868.19
2022-10-09T17:21:32.926Z,100866.75
2022-10-09T17:24:37.854Z,100863.59
2022-10-09T17:27:40.792Z,100864.91
2022-10-09T17:30:44.449Z,100872.34
2022-10-09T17:33:48.612Z,100867.09
2022-10-09T17:36:51.632Z,100869.75
2022-10-09T17:39:55.190Z,100871.91
2022-10-09T17:42:58.208Z,100872.44
2022-10-09T17:46:01.069Z,100873.28
2022-10-09T17:49:04.658Z,100874.37
2022-10-09T17:52:07.949Z,100876.59
2022-10-09T17:55:11.282Z,100885.53
2022-10-09T17:58:14.046Z,100883.72
2022-10-09T18:01:18.976Z,100881.81
2022-10-09T18:04:31.202Z,100874.66
2022-10-09T18:07:37.866Z,100883.38
2022-10-09T18:10:41.150Z,100882.81
2022-10-09T18:13:46.143Z,100886.06
2022-10-09T18:16:54.132Z,100874.63
2022-10-09T18:19:57.355Z,100880.75
2022-10-09T18:23:00.411Z,100887.81
2022-10-09T18:26:19.525Z,100885.41
2022-10-09T18:29:22.607Z,100885.31
2022-10-09T18:32:25.478Z,100894.50
2022-10-09T18:35:30.612Z,100896.34
2022-10-09T18:38:41.708Z,100899.44
2022-10-09T18:41:46.012Z,100901.28
2022-10-09T18:44:50.239Z,100903.59
2022-10-09T18:47:53.502Z,100913.50
2022-10-09T18:51:00.844Z,100915.19
2022-10-09T18:54:07.302Z,100916.50
2022-10-09T18:57:10.572Z,100919.44
2022-10-09T19:00:16.797Z,100920.72
2022-10-09T19:03:20.302Z,100925.59
2022-10-09T19:06:23.366Z,100919.88
2022-10-09T19:09:26.843Z,100924.84
2022-10-09T19:12:32.111Z,100926.53
2022-10-09T19:15:35.309Z,100931.56
2022-10-09T19:18:42.344Z,100936.91
2022-10-09T19:21:45.236Z,100938.59
2022-10-09T19:24:48.673Z,100938.84
2022-10-09T19:27:52.055Z,100942.66
2022-10-09T19:30:59.814Z,100943.62
2022-10-09T19:34:05.339Z,100944.91
2022-10-09T19:37:12.551Z,100951.78
2022-10-09T19:40:17.938Z,100956.63
2022-10-09T19:43:23.959Z,100963.69
2022-10-09T19:46:27.492Z,100972.81
2022-10-09T19:49:32.210Z,100972.69
2022-10-09T19:52:34.852Z,100977.22
2022-10-09T19:55:38.460Z,100970.72
2022-10-09T19:58:43.638Z,100980.59
2022-10-09T20:01:46.692Z,100988.72
2022-10-09T20:04:49.865Z,100983.31
2022-10-09T20:07:52.824Z,100976.09
2022-10-09T20:11:03.097Z,100979.81
2022-10-09T20:14:06.585Z,100981.16
2022-10-09T20:17:09.586Z,100982.34
2022-10-09T20:20:12.559Z,100984.66
2022-10-09T20:23:15.719Z,100987.91
2022-10-09T20:26:21.480Z,100983.44
2022-10-09T20:29:27.003Z,100988.97
2022-10-09T20:32:30.446Z,100984.75
2022-10-09T20:35:33.643Z,100979.94
2022-10-09T20:38:36.730Z,100980.84
2022-10-09T20:41:48.380Z,100985.94
2022-10-09T20:44:53.983Z,100985.59
2022-10-09T20:47:57.105Z,100992.81
2022-10-09T20:51:00.708Z,100999.19
2022-10-09T20:54:06.536Z,100997.81
2022-10-09T20:57:09.205Z,100993.37
2022-10-09T21:00:13.561Z,101003.00
2022-10-09T21:03:16.291Z,100997.06
2022-10-09T21:06:21.347Z,101000.34
2022-10-09T21:09:33.275Z,101000.25
2022-10-09T21:12:36.650Z,100997.69
2022-10-09T21:15:47.049Z,100996.75
2022-10-09T21:19:01.357Z,101009.13
2022-10-09T21:22:04.310Z,101008.09
2022-10-09T21:25:07.691Z,101002.34
2022-10-09T21:28:10.847Z,101002.16
2022-10-09T21:31:20.540Z,100991.88
2022-10-09T21:34:23.242Z,100989.66
2022-10-09T21:37:26.465Z,100993.91
2022-10-09T21:40:29.352Z,100995.91
2022-10-09T21:43:32.280Z,100990.09
2022-10-09T21:46:36.217Z,100996.41
2022-10-09T21:49:43.884Z,100991.12
2022-10-09T21:52:48.954Z,100987.22
2022-10-09T21:55:52.642Z,100990.53
2022-10-09T21:58:55.436Z,100980.13
2022-10-09T22:01:58.926Z,100969.97
2022-10-09T22:05:02.171Z,100977.16
2022-10-09T22:08:05.219Z,100974.19
2022-10-09T22:11:10.369Z,100983.94
2022-10-09T22:14:13.816Z,100980.53
2022-10-09T22:17:20.842Z,100982.75
2022-10-09T22:20:24.529Z,100981.88
2022-10-09T22:23:28.398Z,100987.69
2022-10-09T22:26:32.102Z,100992.34
2022-10-09T22:29:36.187Z,100989.59
2022-10-09T22:32:39.279Z,100991.69
2022-10-09T22:35:45.764Z,100991.50
2022-10-09T22:38:48.596Z,100994.59
2022-10-09T22:41:52.708Z,101000.72
2022-10-09T22:44:56.393Z,100993.03
2022-10-09T22:48:00.316Z,100993.91
2022-10-09T22:51:05.001Z,100995.44
2022-10-09T22:54:12.717Z,100993.97
2022-10-09T22:57:15.865Z,101003.16
2022-10-09T23:00:19.337Z,101000.94
2022-10-09T23:03:22.011Z,100999.13
2022-10-09T23:06:26.168Z,100996.03
2022-10-09T23:09:32.218Z,100996.13
2022-10-09T23:12:35.663Z,101008.22
2022-10-09T23:15:38.938Z,101013.37
2022-10-09T23:18:43.200Z,101006.84
2022-10-09T23:21:46.910Z,101012.75
2022-10-09T23:24:49.909Z,101022.88
2022-10-09T23:27:52.885Z,101016.09
2022-10-09T23:31:05.263Z,101018.84
2022-10-09T23:34:08.149Z,101017.25
2022-10-09T23:37:11.241Z,101019.87
2022-10-09T23:40:14.714Z,101018.28
2022-10-09T23:43:18.055Z,101019.25
2022-10-09T23:46:27.679Z,101019.53
2022-10-09T23:49:31.175Z,101015.97
2022-10-09T23:52:34.563Z,101015.56
2022-10-09T23:55:38.127Z,101013.69
2022-10-09T23:58:41.202Z,101017.06
